Aérodrome :
LOGIN :

S'inscrire | Disclaimer

   EN    FR    IT 

 










Légende :    VFR   VFR Marginal   IFR   IFR Intensif   IFR Très Intensif
Visi : 
Plafond : 
>= 8 km
>= 3000ft
5 à 8 km
1000 à 3000 ft
1500m à 5 km
500 à 1000 ft
800 à 1500m
200 à 500 ft
< 800m
< 200 ft
Symboles :   Orages  Brouillard  Fortes neiges  Fortes précipitations  Vent > 20 kt
SIGMETs :   Divers  Orages  Givrage  Turbulence  Onde Orograph.  Cendres Volcan.







- Altitude de l'aérodrome : 1084 ft
- Code IATA : EPL
- Voir les cartes d'approche


LFSG - Épinal-Mirecourt

DERNIER METAR :
  • 170400Z AUTO 20016KT 9999 -RA BKN029 BKN041 BKN056 05/03 Q1007

METARs EXPIRÉS :
  • 170330Z AUTO 20013KT 9999 -RA SCT026 BKN034 BKN047 05/03 Q1007
  • 170300Z AUTO 19012KT 9999 FEW024 SCT039 BKN062 05/03 Q1008
  • 170230Z AUTO 20015KT 9999 BKN022 BKN032 OVC039 05/03 Q1008
  • 170200Z AUTO 19016KT 9999 -RA FEW013 BKN021 BKN032 04/03 Q1009
  • 170130Z AUTO 20016KT 9999 -DZ BKN017 OVC026 04/03 Q1009

TAF N/A
Pas de NOTAMs connus pour ce terrain.
1 SIGMET publié pour la FIR Reims (LFEE) :
 
Turbulence forte
LFEE SIGMET 2 VALID 170100/170500 LFPW
LFEE REIMS FIR/UIR SEV TURB FCST WI N4845 E00715 - N4830 E00745 - N4745 E00730 - N4745 E00645 - N4845 E00715 SFC/FL050 STNR NC=



MET'MAP, la Météo Aéronautique d'un coup d'oeil ! - Copyright ORBIFLY Décembre 2007 - Disclaimer

ORBIFLY MET'MAP TEAM :

Programmation & Développement : Alexandra Zaïnal
Conception & Développement : Baudouin d'Aumeries
Co-Programmation & Développement : Marc-Olivier Méhu
Soutien technique & logistique : Manuel Goepfert

Contact : metmap@orbifly.com




SOURCES & CREDITS :

   NOAA